Time;durP1;ratioP1;P1;durP2;ratioP2;P2;SDS_P1;SDS_P2;PMS_P1;PMS_P2;Temp;Humidity;BMP_temperature;BMP_pressure;BME280_temperature;BME280_humidity;BME280_pressure;Samples;Min_cycle;Max_cycle;Signal;HPM_P1;HPM_P2
2022/09/24 00:01:10;;;;;;;6.80;4.07;;;14.50;99.90;;;;;;5083077;28;20481;-79
2022/09/24 00:03:37;;;;;;;8.63;5.13;;;14.50;99.90;;;;;;5082706;28;20474;-80
2022/09/24 00:06:05;;;;;;;5.57;4.03;;;14.50;99.90;;;;;;5082874;28;21043;-81
2022/09/24 00:08:32;;;;;;;6.37;3.83;;;14.50;99.90;;;;;;5083114;28;20464;-78
2022/09/24 00:11:02;;;;;;;7.47;4.23;;;14.50;99.90;;;;;;5083301;28;20450;-79
2022/09/24 00:13:30;;;;;;;8.43;4.23;;;14.50;99.90;;;;;;5081842;28;20480;-80
2022/09/24 00:15:56;;;;;;;9.00;4.80;;;14.40;99.90;;;;;;5083503;28;20450;-81
2022/09/24 00:18:25;;;;;;;6.23;4.87;;;14.40;99.90;;;;;;5080850;28;20524;-80
2022/09/24 00:20:51;;;;;;;5.93;4.33;;;14.40;99.90;;;;;;5083363;28;20487;-80
2022/09/24 00:23:18;;;;;;;8.03;4.73;;;14.40;99.90;;;;;;5081141;28;20497;-78
2022/09/24 00:28:32;;;;;;;7.30;4.93;;;14.40;99.90;;;;;;5083786;28;20430;-81
2022/09/24 00:31:00;;;;;;;7.67;4.60;;;14.40;99.90;;;;;;5082951;28;20458;-79
2022/09/24 00:33:28;;;;;;;6.30;4.10;;;14.40;99.90;;;;;;5082640;28;20501;-79
2022/09/24 00:36:01;;;;;;;6.50;4.60;;;14.40;99.90;;;;;;5083995;28;20511;-78
2022/09/24 00:38:27;;;;;;;7.70;5.20;;;14.30;99.90;;;;;;5084132;28;20438;-80
2022/09/24 00:40:54;;;;;;;7.73;4.47;;;14.40;99.90;;;;;;5083020;28;20553;-78
2022/09/24 00:43:24;;;;;;;6.77;5.03;;;14.30;99.90;;;;;;5083332;28;20546;-78
2022/09/24 00:45:52;;;;;;;6.53;4.80;;;14.30;99.90;;;;;;5087343;28;20451;-80
2022/09/24 00:48:19;;;;;;;6.77;4.70;;;14.30;99.90;;;;;;5087266;28;20452;-79
2022/09/24 00:50:48;;;;;;;6.10;4.77;;;14.30;99.90;;;;;;5087405;28;20553;-80
2022/09/24 00:53:18;;;;;;;10.40;5.30;;;14.40;99.90;;;;;;5086287;28;20547;-79
2022/09/24 00:55:49;;;;;;;7.20;5.20;;;14.40;99.90;;;;;;5085064;28;20447;-80
2022/09/24 00:58:17;;;;;;;6.97;4.53;;;14.30;99.90;;;;;;5087071;28;20439;-81
2022/09/24 01:00:44;;;;;;;6.83;4.43;;;14.40;99.90;;;;;;5086329;28;20491;-81
2022/09/24 01:03:16;;;;;;;10.87;6.20;;;14.40;99.90;;;;;;5085329;28;20531;-81
2022/09/24 01:05:43;;;;;;;8.33;5.17;;;14.40;99.90;;;;;;5086348;28;20458;-80
2022/09/24 01:08:13;;;;;;;6.57;5.10;;;14.40;99.90;;;;;;5086308;28;20553;-80
2022/09/24 01:10:58;;;;;;;8.73;5.67;;;14.40;99.90;;;;;;5086450;28;20452;-80
2022/09/24 01:13:40;;;;;;;7.13;5.30;;;14.40;99.90;;;;;;5084393;28;20474;-82
2022/09/24 01:16:13;;;;;;;9.77;6.43;;;14.40;99.90;;;;;;5081681;28;20455;-80
2022/09/24 01:18:47;;;;;;;12.13;6.53;;;14.40;99.90;;;;;;5085276;28;20538;-79
2022/09/24 01:21:25;;;;;;;8.10;5.50;;;14.40;99.90;;;;;;5065959;28;20529;-80
2022/09/24 01:24:28;;;;;;;7.53;5.63;;;14.40;99.90;;;;;;5068804;28;20478;-81
2022/09/24 01:27:03;;;;;;;7.97;5.27;;;14.40;99.90;;;;;;5064090;28;20468;-82
2022/09/24 01:29:40;;;;;;;8.13;6.17;;;14.40;99.90;;;;;;5070434;28;20548;-80
2022/09/24 01:32:11;;;;;;;7.03;5.60;;;14.40;99.90;;;;;;5083860;28;20542;-80
2022/09/24 01:34:43;;;;;;;10.40;6.40;;;14.40;99.90;;;;;;5082074;28;20534;-79
2022/09/24 01:37:14;;;;;;;8.33;6.03;;;14.40;99.90;;;;;;5084443;28;20475;-79
2022/09/24 01:39:42;;;;;;;8.03;6.17;;;14.40;99.90;;;;;;5083421;28;20524;-80
2022/09/24 01:42:12;;;;;;;8.57;6.30;;;14.40;99.90;;;;;;5082153;28;20484;-79
2022/09/24 01:44:41;;;;;;;7.63;6.83;;;14.40;99.90;;;;;;5081809;28;20850;-80
2022/09/24 01:47:09;;;;;;;12.83;6.53;;;14.40;99.90;;;;;;5084492;28;20465;-79
2022/09/24 01:49:36;;;;;;;9.00;6.97;;;14.30;99.90;;;;;;5082874;28;20462;-81
2022/09/24 01:52:09;;;;;;;9.23;6.43;;;14.30;99.90;;;;;;5086659;28;20443;-79
2022/09/24 01:54:40;;;;;;;8.37;6.97;;;14.30;99.90;;;;;;5085423;28;20482;-77
2022/09/24 01:57:13;;;;;;;7.40;6.43;;;14.30;99.90;;;;;;5087872;28;20444;-81
2022/09/24 01:59:47;;;;;;;9.00;7.37;;;14.30;99.90;;;;;;5088170;28;20445;-78
2022/09/24 02:02:26;;;;;;;9.37;7.13;;;14.30;99.90;;;;;;5088874;28;20508;-80
2022/09/24 02:04:58;;;;;;;10.40;6.93;;;14.30;99.90;;;;;;5087528;28;20441;-81
2022/09/24 02:07:32;;;;;;;9.50;6.87;;;14.30;99.90;;;;;;5088533;28;20450;-80
2022/09/24 02:09:59;;;;;;;10.30;7.27;;;14.30;99.90;;;;;;5088778;28;20450;-80
2022/09/24 02:12:29;;;;;;;9.00;7.03;;;14.30;99.90;;;;;;5089343;28;20512;-81
2022/09/24 02:15:01;;;;;;;12.17;7.63;;;14.30;99.90;;;;;;5089641;28;20432;-81
2022/09/24 02:17:32;;;;;;;10.10;7.03;;;14.30;99.90;;;;;;5089392;28;20893;-80
2022/09/24 02:20:04;;;;;;;15.43;8.00;;;14.30;99.90;;;;;;5090317;28;20453;-82
2022/09/24 02:22:31;;;;;;;12.37;7.20;;;14.30;99.90;;;;;;5087533;28;20458;-80
2022/09/24 02:25:04;;;;;;;11.53;8.60;;;14.30;99.90;;;;;;5086002;28;20530;-80
2022/09/24 02:27:31;;;;;;;11.03;7.50;;;14.30;99.90;;;;;;5089394;28;20510;-80
2022/09/24 02:30:00;;;;;;;9.10;7.20;;;14.30;99.90;;;;;;5089619;28;20447;-82
2022/09/24 02:32:29;;;;;;;9.90;7.20;;;14.30;99.90;;;;;;5089619;28;20451;-81
2022/09/24 02:35:01;;;;;;;8.67;7.03;;;14.30;99.90;;;;;;5088083;28;20511;-82
2022/09/24 02:37:29;;;;;;;11.37;7.60;;;14.30;99.90;;;;;;5091395;28;20510;-83
2022/09/24 02:39:56;;;;;;;10.30;8.40;;;14.30;99.90;;;;;;5088135;28;20482;-80
2022/09/24 02:42:23;;;;;;;9.50;7.90;;;14.30;99.90;;;;;;5089976;28;20480;-82
2022/09/24 02:44:51;;;;;;;9.23;8.10;;;14.30;99.90;;;;;;5088543;28;20844;-80
2022/09/24 02:47:19;;;;;;;12.63;7.60;;;14.30;99.90;;;;;;5090356;28;20502;-80
2022/09/24 02:49:46;;;;;;;8.93;7.60;;;14.30;99.90;;;;;;5090009;28;20483;-79
2022/09/24 02:52:12;;;;;;;12.07;7.87;;;14.20;99.90;;;;;;5088811;28;20488;-81
2022/09/24 02:54:40;;;;;;;11.07;8.80;;;14.20;99.90;;;;;;5086304;28;20528;-83
2022/09/24 02:57:07;;;;;;;14.43;9.23;;;14.20;99.90;;;;;;5089031;28;20524;-79
2022/09/24 02:59:34;;;;;;;9.93;8.30;;;14.30;99.90;;;;;;5089319;28;20487;-80
2022/09/24 03:02:01;;;;;;;9.20;7.93;;;14.30;99.90;;;;;;5088204;28;20486;-80
2022/09/24 03:04:30;;;;;;;15.53;9.43;;;14.20;99.90;;;;;;5084693;28;20478;-80
2022/09/24 03:06:57;;;;;;;11.27;8.90;;;14.30;99.90;;;;;;5087592;28;20454;-82
2022/09/24 03:09:24;;;;;;;13.20;8.73;;;14.30;99.90;;;;;;5087809;28;20526;-82
2022/09/24 03:11:51;;;;;;;11.50;8.20;;;14.30;99.90;;;;;;5088942;28;20449;-80
2022/09/24 03:14:18;;;;;;;8.97;7.90;;;14.30;99.90;;;;;;5087016;28;21006;-80
2022/09/24 03:16:44;;;;;;;10.13;8.33;;;14.30;99.90;;;;;;5087714;28;20479;-78
2022/09/24 03:19:11;;;;;;;12.83;8.43;;;14.30;99.90;;;;;;5088427;28;20517;-80
2022/09/24 03:21:39;;;;;;;12.43;9.47;;;14.30;99.90;;;;;;5087198;28;20571;-81
2022/09/24 03:24:06;;;;;;;11.20;7.67;;;14.30;99.90;;;;;;5084485;28;20550;-81
2022/09/24 03:26:33;;;;;;;10.23;8.77;;;14.30;99.90;;;;;;5086148;28;20458;-79
2022/09/24 03:29:00;;;;;;;12.13;8.13;;;14.30;99.90;;;;;;5086841;28;20452;-83
2022/09/24 03:31:26;;;;;;;11.63;8.60;;;14.30;99.90;;;;;;5087191;28;20477;-78
2022/09/24 03:33:53;;;;;;;11.80;8.93;;;14.30;99.90;;;;;;5085204;28;20462;-80
2022/09/24 03:36:22;;;;;;;12.73;9.70;;;14.30;99.90;;;;;;5088706;28;20216;-80
2022/09/24 03:38:53;;;;;;;13.40;10.10;;;14.30;99.90;;;;;;5086164;28;20457;-82
2022/09/24 03:41:19;;;;;;;14.20;10.10;;;14.30;99.90;;;;;;5086626;28;20484;-79
2022/09/24 03:43:46;;;;;;;12.13;10.80;;;14.30;99.90;;;;;;5086638;28;20467;-82
2022/09/24 03:46:14;;;;;;;16.93;11.97;;;14.30;99.90;;;;;;5088503;28;20462;-81
2022/09/24 03:48:42;;;;;;;18.20;12.83;;;14.30;99.90;;;;;;5087526;28;20465;-80
2022/09/24 03:51:11;;;;;;;18.80;13.20;;;14.30;99.90;;;;;;5086299;28;20473;-80
2022/09/24 03:53:38;;;;;;;17.83;13.03;;;14.30;99.90;;;;;;5085444;28;20484;-78
2022/09/24 03:56:07;;;;;;;16.50;13.50;;;14.30;99.90;;;;;;5084483;28;20466;-78
2022/09/24 03:58:37;;;;;;;14.27;11.80;;;14.30;99.90;;;;;;5087085;28;20529;-80
2022/09/24 04:01:05;;;;;;;18.27;13.73;;;14.20;99.90;;;;;;5086155;28;20475;-80
2022/09/24 04:03:32;;;;;;;16.70;12.80;;;14.20;99.90;;;;;;5086158;28;20513;-80
2022/09/24 04:05:59;;;;;;;15.93;12.80;;;14.20;99.90;;;;;;5084008;28;20453;-82
2022/09/24 04:08:25;;;;;;;16.13;12.27;;;14.20;99.90;;;;;;5086039;28;20846;-81
2022/09/24 04:10:54;;;;;;;14.83;11.40;;;14.20;99.90;;;;;;5085312;28;20518;-80
2022/09/24 04:13:22;;;;;;;16.20;12.50;;;14.20;99.90;;;;;;5085169;28;20512;-80
2022/09/24 04:15:50;;;;;;;18.07;13.60;;;14.20;99.90;;;;;;5084604;28;20459;-80
2022/09/24 04:18:17;;;;;;;17.00;13.97;;;14.20;99.90;;;;;;5085484;28;20478;-79
2022/09/24 04:20:44;;;;;;;18.33;13.47;;;14.20;99.90;;;;;;5086331;28;20479;-81
2022/09/24 04:23:11;;;;;;;17.93;12.97;;;14.20;99.90;;;;;;5087061;28;20476;-80
2022/09/24 04:25:40;;;;;;;17.20;13.90;;;14.20;99.90;;;;;;5087808;28;20453;-82
2022/09/24 04:28:08;;;;;;;15.63;13.63;;;14.20;99.90;;;;;;5086637;28;20459;-81
2022/09/24 04:30:37;;;;;;;19.47;14.87;;;14.20;99.90;;;;;;5087403;28;20522;-81
2022/09/24 04:33:04;;;;;;;16.07;13.40;;;14.20;99.90;;;;;;5082633;28;20477;-79
2022/09/24 04:35:34;;;;;;;18.67;14.33;;;14.20;99.90;;;;;;5077779;28;20447;-79
2022/09/24 04:38:02;;;;;;;17.80;14.07;;;14.20;99.90;;;;;;5082283;22;20492;-78
2022/09/24 04:40:29;;;;;;;19.63;14.10;;;14.10;99.90;;;;;;5042127;28;20452;-78
2022/09/24 04:42:56;;;;;;;17.20;13.60;;;14.10;99.90;;;;;;5031748;28;20892;-78
2022/09/24 04:45:23;;;;;;;18.80;14.57;;;14.10;99.90;;;;;;5043160;28;20464;-78
2022/09/24 04:47:54;;;;;;;19.70;14.70;;;14.10;99.90;;;;;;5040280;28;20486;-77
2022/09/24 04:50:22;;;;;;;15.67;13.17;;;14.10;99.90;;;;;;5040814;28;20522;-78
2022/09/24 04:52:49;;;;;;;16.40;13.50;;;14.10;99.90;;;;;;5049457;28;20470;-77
2022/09/24 04:55:15;;;;;;;16.77;13.20;;;14.00;99.90;;;;;;5044886;28;20541;-78
2022/09/24 04:57:44;;;;;;;16.90;12.50;;;14.00;99.90;;;;;;5035749;28;20467;-79
2022/09/24 05:00:14;;;;;;;18.07;13.30;;;14.00;99.90;;;;;;5039387;28;21156;-78
2022/09/24 05:02:42;;;;;;;18.73;14.40;;;14.00;99.90;;;;;;5032349;28;20484;-78
2022/09/24 05:05:11;;;;;;;16.90;13.90;;;14.00;99.90;;;;;;5030890;28;20467;-78
2022/09/24 05:07:38;;;;;;;17.30;13.33;;;14.00;99.90;;;;;;5031622;28;21184;-78
2022/09/24 05:10:06;;;;;;;17.40;13.90;;;14.00;99.90;;;;;;5041923;28;20449;-79
2022/09/24 05:12:34;;;;;;;16.97;13.10;;;14.00;99.90;;;;;;5063326;28;20436;-78
2022/09/24 05:15:01;;;;;;;16.80;13.60;;;14.00;99.90;;;;;;5059438;28;20527;-78
2022/09/24 05:17:27;;;;;;;15.80;12.90;;;14.00;99.90;;;;;;5039693;28;20473;-78
2022/09/24 05:19:56;;;;;;;15.80;12.13;;;14.00;99.90;;;;;;5033985;28;20457;-78
2022/09/24 05:22:26;;;;;;;14.70;11.30;;;14.00;99.90;;;;;;5033800;28;20487;-78
2022/09/24 05:24:53;;;;;;;13.47;11.87;;;14.00;99.90;;;;;;5033025;28;20457;-78
2022/09/24 05:27:20;;;;;;;15.40;12.10;;;14.00;99.90;;;;;;5033951;28;20496;-78
2022/09/24 05:29:47;;;;;;;16.90;13.27;;;14.00;99.90;;;;;;5042727;28;20515;-78
2022/09/24 05:32:16;;;;;;;16.40;12.80;;;14.00;99.90;;;;;;5050693;28;20439;-78
2022/09/24 05:34:43;;;;;;;13.07;10.30;;;14.00;99.90;;;;;;5040359;28;20459;-79
2022/09/24 05:37:11;;;;;;;13.20;11.27;;;14.00;99.90;;;;;;5034058;28;20479;-79
2022/09/24 05:39:39;;;;;;;14.10;11.87;;;14.00;99.90;;;;;;5033878;28;20487;-78
2022/09/24 05:42:06;;;;;;;15.50;11.87;;;14.00;99.90;;;;;;5033381;28;20566;-79
2022/09/24 05:44:34;;;;;;;15.43;13.07;;;14.00;99.90;;;;;;5032959;28;20472;-78
2022/09/24 05:47:00;;;;;;;14.30;11.70;;;14.00;99.90;;;;;;5033413;28;20454;-78
2022/09/24 05:49:27;;;;;;;17.17;12.87;;;14.00;99.90;;;;;;5033431;28;20448;-78
2022/09/24 05:51:54;;;;;;;16.40;12.50;;;14.00;99.90;;;;;;5037601;28;20453;-78
2022/09/24 05:54:21;;;;;;;16.83;12.00;;;13.80;99.90;;;;;;5035830;28;20456;-78
2022/09/24 05:56:49;;;;;;;15.73;10.80;;;13.80;99.90;;;;;;5033337;28;20456;-78
2022/09/24 05:59:16;;;;;;;14.63;10.27;;;13.90;99.90;;;;;;5033586;28;20876;-78
2022/09/24 06:01:43;;;;;;;13.10;10.70;;;13.90;99.90;;;;;;5032934;28;20490;-78
2022/09/24 06:04:11;;;;;;;12.80;10.50;;;13.90;99.90;;;;;;5032060;28;20888;-79
2022/09/24 06:06:38;;;;;;;15.07;11.27;;;13.90;99.90;;;;;;5033136;28;20496;-78
2022/09/24 06:09:07;;;;;;;14.20;10.30;;;13.90;99.90;;;;;;5032612;28;20477;-79
2022/09/24 06:11:34;;;;;;;13.17;10.33;;;14.00;99.90;;;;;;5033422;28;21239;-78
2022/09/24 06:14:04;;;;;;;12.80;10.00;;;14.00;99.90;;;;;;5032348;28;20460;-78
2022/09/24 06:16:33;;;;;;;12.50;10.10;;;14.00;99.90;;;;;;5033870;28;20456;-79
2022/09/24 06:19:00;;;;;;;17.33;10.87;;;14.00;99.90;;;;;;5034203;28;20483;-77
2022/09/24 06:21:27;;;;;;;16.43;12.93;;;14.00;99.90;;;;;;5033468;28;20517;-79
2022/09/24 06:23:53;;;;;;;20.50;14.70;;;14.10;99.90;;;;;;5032455;28;20452;-77
2022/09/24 06:26:20;;;;;;;16.37;13.70;;;14.10;99.90;;;;;;5032983;28;20459;-78
2022/09/24 06:28:47;;;;;;;16.60;12.40;;;14.10;99.90;;;;;;5032745;28;20476;-78
2022/09/24 06:31:15;;;;;;;19.50;12.93;;;14.20;99.90;;;;;;5032451;28;20544;-78
2022/09/24 06:33:42;;;;;;;14.97;12.23;;;14.20;99.90;;;;;;5027877;28;20453;-79
2022/09/24 06:36:09;;;;;;;13.13;10.33;;;14.30;99.90;;;;;;5025793;28;21129;-78
2022/09/24 06:38:38;;;;;;;13.83;10.10;;;14.30;99.90;;;;;;5024284;28;20999;-79
2022/09/24 06:41:06;;;;;;;14.60;10.60;;;14.40;99.90;;;;;;5025200;28;20462;-78
2022/09/24 06:43:34;;;;;;;13.20;10.30;;;14.40;99.90;;;;;;5024914;28;20507;-78
2022/09/24 06:46:02;;;;;;;16.33;11.30;;;14.50;99.90;;;;;;5030164;28;20438;-78
2022/09/24 06:48:31;;;;;;;15.80;10.80;;;14.50;99.90;;;;;;5025566;28;20870;-78
2022/09/24 06:50:58;;;;;;;11.30;9.20;;;14.60;99.90;;;;;;5029430;28;20458;-78
2022/09/24 06:53:27;;;;;;;11.97;9.40;;;14.60;99.90;;;;;;5033194;28;20459;-78
2022/09/24 06:55:58;;;;;;;13.60;10.60;;;14.60;99.90;;;;;;5029994;28;20513;-79
2022/09/24 06:58:26;;;;;;;11.97;9.47;;;14.70;99.90;;;;;;5029117;28;20599;-77
2022/09/24 07:00:57;;;;;;;14.67;9.50;;;14.70;99.90;;;;;;5030193;28;20461;-78
2022/09/24 07:03:25;;;;;;;13.27;9.63;;;14.80;99.90;;;;;;5034165;28;20487;-79
2022/09/24 07:05:54;;;;;;;11.67;9.53;;;14.80;99.90;;;;;;5025099;28;20508;-79
2022/09/24 07:08:21;;;;;;;14.90;11.40;;;14.90;99.90;;;;;;5027630;28;20494;-79
2022/09/24 07:10:49;;;;;;;11.97;10.40;;;14.90;99.90;;;;;;5038442;28;20979;-78
2022/09/24 07:13:16;;;;;;;12.23;9.03;;;15.00;99.90;;;;;;5040121;28;20460;-79
2022/09/24 07:15:44;;;;;;;12.70;10.77;;;15.00;99.90;;;;;;5042019;28;20473;-78
2022/09/24 07:18:11;;;;;;;11.57;10.37;;;15.10;99.90;;;;;;5037468;28;20621;-76
2022/09/24 07:20:38;;;;;;;15.37;10.50;;;15.20;99.90;;;;;;5033869;28;20463;-77
2022/09/24 07:23:08;;;;;;;17.50;12.10;;;15.20;99.90;;;;;;5033140;28;20489;-77
2022/09/24 07:25:35;;;;;;;13.27;9.73;;;15.20;99.90;;;;;;5033585;28;20459;-76
2022/09/24 07:28:03;;;;;;;14.73;10.87;;;15.30;99.90;;;;;;5035686;28;20486;-80
2022/09/24 07:30:31;;;;;;;15.50;11.97;;;15.40;99.90;;;;;;5036476;28;20459;-77
2022/09/24 07:32:58;;;;;;;20.57;11.57;;;15.50;99.90;;;;;;5035608;28;20537;-77
2022/09/24 07:35:26;;;;;;;12.10;9.50;;;15.50;99.90;;;;;;5035897;28;20532;-77
2022/09/24 07:38:00;;;;;;;13.67;10.23;;;15.60;99.90;;;;;;5035885;28;20511;-78
2022/09/24 07:40:29;;;;;;;13.23;9.77;;;15.70;99.90;;;;;;5036041;28;20456;-77
2022/09/24 07:42:57;;;;;;;12.33;11.00;;;15.60;99.90;;;;;;5035351;28;20485;-77
2022/09/24 07:45:26;;;;;;;15.50;11.90;;;15.70;99.90;;;;;;5035706;28;20511;-77
2022/09/24 07:47:57;;;;;;;11.60;9.63;;;15.60;99.90;;;;;;5034433;28;20482;-77
2022/09/24 07:50:25;;;;;;;14.90;10.53;;;15.70;99.90;;;;;;5034272;28;20454;-77
2022/09/24 07:52:53;;;;;;;15.97;11.57;;;15.80;99.90;;;;;;5034934;28;20566;-77
2022/09/24 07:55:20;;;;;;;17.13;12.07;;;15.80;99.90;;;;;;5035672;28;20452;-77
2022/09/24 07:57:49;;;;;;;11.33;9.37;;;15.80;99.90;;;;;;5036152;28;20479;-78
2022/09/24 08:00:17;;;;;;;17.50;11.07;;;15.90;99.90;;;;;;5036051;28;20458;-77
2022/09/24 08:02:44;;;;;;;14.13;9.73;;;15.90;99.90;;;;;;5035425;28;20477;-78
2022/09/24 08:05:14;;;;;;;14.43;11.10;;;15.90;99.90;;;;;;5036151;28;20514;-77
2022/09/24 08:07:41;;;;;;;17.37;12.10;;;15.90;99.90;;;;;;5037126;28;20480;-77
2022/09/24 08:10:08;;;;;;;15.37;10.60;;;16.00;99.90;;;;;;5035853;28;20461;-78
2022/09/24 08:12:35;;;;;;;12.00;9.00;;;16.00;99.90;;;;;;5036228;28;20463;-77
2022/09/24 08:15:04;;;;;;;16.73;11.20;;;16.00;99.90;;;;;;5035294;28;20449;-77
2022/09/24 08:17:31;;;;;;;16.00;10.67;;;16.00;99.90;;;;;;5036771;28;20481;-77
2022/09/24 08:19:58;;;;;;;16.60;12.60;;;16.00;99.90;;;;;;5035971;28;20458;-78
2022/09/24 08:22:25;;;;;;;13.87;11.73;;;15.90;99.90;;;;;;5036410;28;20482;-77
2022/09/24 08:24:52;;;;;;;12.50;10.30;;;15.90;99.90;;;;;;5035275;28;20455;-77
2022/09/24 08:27:19;;;;;;;14.57;10.87;;;15.90;99.90;;;;;;5035014;28;20482;-77
2022/09/24 08:29:46;;;;;;;12.20;9.70;;;16.00;99.90;;;;;;5036062;28;20510;-78
2022/09/24 08:32:14;;;;;;;11.47;9.03;;;16.00;99.90;;;;;;5036531;28;20452;-77
2022/09/24 08:34:41;;;;;;;16.10;11.53;;;16.10;99.90;;;;;;5034638;28;20463;-78
2022/09/24 08:37:08;;;;;;;16.60;12.03;;;16.10;99.90;;;;;;5035436;28;20490;-77
2022/09/24 08:39:35;;;;;;;16.63;9.93;;;16.20;99.90;;;;;;5035987;28;20452;-78
2022/09/24 08:42:05;;;;;;;16.90;10.13;;;16.20;99.90;;;;;;5036061;28;20452;-77
2022/09/24 08:47:37;;;;;;;13.73;9.10;;;16.50;99.90;;;;;;5015429;28;20957;-77
2022/09/24 08:50:12;;;;;;;17.50;11.00;;;16.60;99.90;;;;;;5023279;28;20464;-78
2022/09/24 08:52:58;;;;;;;14.73;10.27;;;16.60;99.90;;;;;;5043508;28;20509;-79
2022/09/24 08:55:32;;;;;;;18.73;11.20;;;16.70;99.90;;;;;;5045129;28;20449;-77
2022/09/24 08:58:14;;;;;;;17.60;10.80;;;16.60;99.90;;;;;;5032404;28;20483;-77
2022/09/24 09:00:47;;;;;;;16.80;11.07;;;16.50;99.90;;;;;;5031800;28;20447;-77
2022/09/24 09:03:24;;;;;;;15.27;11.23;;;16.50;99.90;;;;;;5031993;28;20579;-78
2022/09/24 09:05:56;;;;;;;17.97;9.93;;;16.70;99.90;;;;;;5032357;28;20461;-76
2022/09/24 09:08:34;;;;;;;14.87;11.13;;;16.80;99.90;;;;;;5029714;28;20481;-76
2022/09/24 09:11:03;;;;;;;22.20;11.20;;;16.70;99.90;;;;;;5031833;28;20456;-76
2022/09/24 09:13:36;;;;;;;13.63;8.37;;;16.70;99.90;;;;;;5026744;28;21070;-76
2022/09/24 09:16:06;;;;;;;11.60;9.03;;;16.90;99.90;;;;;;5032120;28;20462;-77
2022/09/24 09:18:37;;;;;;;13.80;10.03;;;17.00;99.90;;;;;;5032216;28;20486;-78
2022/09/24 09:21:13;;;;;;;13.27;10.87;;;17.00;99.90;;;;;;5031793;28;20970;-78
2022/09/24 09:23:47;;;;;;;14.57;10.00;;;17.00;99.90;;;;;;5031272;28;20517;-77
2022/09/24 09:26:17;;;;;;;11.53;9.47;;;16.90;99.90;;;;;;5032455;28;20484;-77
2022/09/24 09:28:45;;;;;;;11.80;9.40;;;17.00;99.90;;;;;;5032011;28;20473;-77
2022/09/24 09:31:21;;;;;;;10.67;8.47;;;17.00;99.90;;;;;;5032109;28;20475;-76
2022/09/24 09:34:09;;;;;;;11.27;9.20;;;17.00;99.90;;;;;;5031116;28;20851;-77
2022/09/24 09:36:45;;;;;;;12.27;7.50;;;17.20;99.90;;;;;;5030011;28;20502;-77
2022/09/24 09:39:29;;;;;;;9.83;8.07;;;17.30;99.90;;;;;;5031770;28;20485;-77
2022/09/24 09:42:03;;;;;;;12.40;8.10;;;17.40;99.90;;;;;;5033508;28;20457;-78
2022/09/24 09:44:37;;;;;;;12.50;9.40;;;17.40;99.90;;;;;;5033735;28;21305;-77
2022/09/24 09:47:16;;;;;;;16.27;8.80;;;17.50;99.90;;;;;;5034690;28;20446;-77
2022/09/24 09:49:47;;;;;;;13.07;9.10;;;17.60;99.90;;;;;;5036852;28;20440;-78
2022/09/24 09:52:19;;;;;;;13.60;9.40;;;17.40;99.90;;;;;;5038876;28;20453;-78
2022/09/24 09:54:47;;;;;;;10.13;8.00;;;17.50;99.90;;;;;;5038304;28;20517;-78
2022/09/24 09:57:18;;;;;;;11.93;8.73;;;17.40;99.90;;;;;;5038827;28;20528;-78
2022/09/24 09:59:48;;;;;;;10.03;7.53;;;17.40;99.90;;;;;;5039020;28;20456;-78
2022/09/24 10:02:24;;;;;;;11.23;7.37;;;17.40;99.90;;;;;;5039320;28;20449;-78
2022/09/24 10:04:55;;;;;;;10.50;8.40;;;17.40;99.90;;;;;;5038053;28;20456;-77
2022/09/24 10:07:23;;;;;;;11.80;7.63;;;17.40;99.90;;;;;;5038459;28;20547;-79
2022/09/24 10:10:02;;;;;;;9.40;7.10;;;17.40;99.90;;;;;;5037452;28;20542;-77
2022/09/24 10:12:29;;;;;;;8.63;7.03;;;17.50;99.90;;;;;;5034547;28;20447;-78
2022/09/24 10:14:58;;;;;;;9.67;7.50;;;17.50;99.90;;;;;;5029753;28;20462;-78
2022/09/24 10:17:29;;;;;;;13.80;7.03;;;17.50;99.90;;;;;;5034489;28;20478;-78
2022/09/24 10:20:00;;;;;;;10.73;8.33;;;17.60;99.90;;;;;;5030649;28;20986;-80
2022/09/24 10:22:30;;;;;;;11.40;8.30;;;17.70;99.90;;;;;;5034480;28;20459;-78
2022/09/24 10:25:00;;;;;;;12.50;9.30;;;17.80;99.90;;;;;;5031116;28;20450;-78
2022/09/24 10:27:36;;;;;;;9.83;7.47;;;17.70;99.90;;;;;;5040184;28;20475;-79
2022/09/24 10:32:57;;;;;;;9.53;6.90;;;17.90;99.90;;;;;;5038813;28;20436;-79
2022/09/24 10:35:29;;;;;;;9.50;7.97;;;17.90;99.90;;;;;;5037332;28;20442;-79
2022/09/24 10:37:57;;;;;;;12.03;7.53;;;17.90;99.90;;;;;;5036284;28;20541;-77
2022/09/24 10:40:28;;;;;;;7.70;6.50;;;18.00;99.90;;;;;;5037048;28;20452;-77
2022/09/24 10:42:59;;;;;;;7.97;6.63;;;17.80;99.90;;;;;;5039703;28;20577;-78
2022/09/24 10:45:39;;;;;;;9.80;6.40;;;17.80;99.90;;;;;;5041562;28;20529;-78
2022/09/24 10:48:16;;;;;;;8.53;6.20;;;18.00;99.90;;;;;;5038530;28;20476;-80
2022/09/24 10:50:53;;;;;;;6.67;5.73;;;17.90;99.90;;;;;;5034396;28;20448;-79
2022/09/24 10:53:31;;;;;;;8.77;6.03;;;18.10;99.90;;;;;;5042989;28;20480;-79
2022/09/24 10:56:05;;;;;;;8.00;6.40;;;18.10;99.90;;;;;;5050042;28;20521;-81
2022/09/24 10:58:55;;;;;;;7.57;6.13;;;18.10;99.90;;;;;;5044530;28;20474;-79
2022/09/24 11:01:31;;;;;;;8.90;6.47;;;18.00;99.90;;;;;;5047299;28;20447;-78
2022/09/24 11:04:21;;;;;;;7.83;6.70;;;18.00;99.90;;;;;;5038502;28;20472;-78
2022/09/24 11:07:12;;;;;;;8.43;7.10;;;17.90;99.90;;;;;;5036802;28;20445;-78
2022/09/24 11:09:47;;;;;;;7.60;6.13;;;17.70;99.90;;;;;;5047266;28;20462;-79
2022/09/24 11:12:22;;;;;;;8.27;6.90;;;17.70;99.90;;;;;;5031208;28;20553;-78
2022/09/24 11:15:18;;;;;;;11.63;8.10;;;17.80;99.90;;;;;;5033713;28;20544;-79
2022/09/24 11:17:57;;;;;;;7.80;7.00;;;17.70;99.90;;;;;;5037963;28;20536;-78
2022/09/24 11:20:33;;;;;;;10.03;7.90;;;17.70;99.90;;;;;;5025030;28;20441;-79
2022/09/24 11:23:20;;;;;;;10.67;7.43;;;17.70;99.90;;;;;;5040461;28;21173;-79
2022/09/24 11:25:55;;;;;;;9.10;6.67;;;17.70;99.90;;;;;;5040505;28;20465;-79
2022/09/24 11:28:44;;;;;;;9.80;8.20;;;17.70;99.90;;;;;;5032264;28;20473;-79
2022/09/24 11:31:22;;;;;;;8.80;7.00;;;17.60;99.90;;;;;;5031278;28;20480;-80
2022/09/24 11:34:03;;;;;;;14.70;8.17;;;17.70;99.90;;;;;;5033726;28;20446;-77
2022/09/24 11:36:41;;;;;;;8.83;7.57;;;17.60;99.90;;;;;;5025967;28;20815;-76
2022/09/24 11:39:28;;;;;;;8.77;6.90;;;17.60;99.90;;;;;;5041336;28;20482;-79
2022/09/24 11:42:06;;;;;;;10.03;7.17;;;17.50;99.90;;;;;;5030026;28;20459;-79
2022/09/24 11:45:05;;;;;;;11.90;7.77;;;17.50;99.90;;;;;;5038455;28;20555;-79
2022/09/24 11:47:57;;;;;;;7.37;6.50;;;17.50;99.90;;;;;;5030768;28;20913;-77
2022/09/24 11:50:36;;;;;;;7.10;6.23;;;17.50;99.90;;;;;;5022900;28;20465;-78
2022/09/24 11:53:12;;;;;;;9.17;7.07;;;17.50;99.90;;;;;;5019463;28;20459;-77
2022/09/24 11:55:46;;;;;;;10.67;8.40;;;17.60;99.90;;;;;;5033089;28;20953;-77
2022/09/24 11:58:17;;;;;;;11.10;8.97;;;17.60;99.90;;;;;;5031320;28;20479;-78
2022/09/24 12:00:49;;;;;;;11.83;10.07;;;17.60;99.90;;;;;;5032319;28;20455;-78
2022/09/24 12:03:20;;;;;;;12.20;10.17;;;17.60;99.90;;;;;;5032488;28;20483;-77
2022/09/24 12:05:52;;;;;;;11.97;9.47;;;17.50;99.90;;;;;;5026711;28;20469;-78
2022/09/24 12:08:27;;;;;;;10.37;9.30;;;17.60;99.90;;;;;;5028076;28;20515;-78
2022/09/24 12:11:03;;;;;;;11.33;9.80;;;17.70;99.90;;;;;;5014437;28;20447;-78
2022/09/24 12:13:37;;;;;;;11.70;8.43;;;17.70;99.90;;;;;;5022610;28;20553;-78
2022/09/24 12:16:10;;;;;;;13.20;9.80;;;17.60;99.90;;;;;;5028044;28;20833;-79
2022/09/24 12:18:44;;;;;;;10.47;9.37;;;17.60;99.90;;;;;;5033396;28;20474;-81
2022/09/24 12:21:15;;;;;;;11.83;9.30;;;17.60;99.90;;;;;;5032544;28;20447;-80
2022/09/24 12:23:45;;;;;;;9.30;7.40;;;17.70;99.90;;;;;;5030176;28;20506;-79
2022/09/24 12:26:16;;;;;;;9.87;7.90;;;17.80;99.90;;;;;;5023312;28;20551;-79
2022/09/24 12:34:39;;;;;;;11.17;8.90;;;17.80;99.90;;;;;;5038485;28;20538;-78
2022/09/24 12:37:12;;;;;;;12.13;8.10;;;17.80;99.90;;;;;;5034800;28;20554;-77
2022/09/24 12:39:48;;;;;;;11.40;8.43;;;17.80;99.90;;;;;;5031150;28;20543;-76
2022/09/24 12:42:20;;;;;;;8.80;7.63;;;17.80;99.90;;;;;;5031436;28;20463;-76
2022/09/24 12:44:52;;;;;;;11.17;7.13;;;17.90;99.90;;;;;;5028326;28;20491;-76
2022/09/24 12:47:22;;;;;;;11.90;9.33;;;18.00;99.90;;;;;;5032199;28;20473;-79
2022/09/24 12:49:54;;;;;;;9.87;8.50;;;18.10;99.90;;;;;;5028958;28;20843;-77
2022/09/24 12:52:27;;;;;;;10.43;8.63;;;18.20;99.90;;;;;;5031669;28;20458;-78
2022/09/24 12:54:58;;;;;;;10.87;9.77;;;18.30;99.90;;;;;;5030542;28;20464;-77
2022/09/24 12:57:31;;;;;;;12.10;10.20;;;18.30;99.90;;;;;;5031384;28;20508;-78
2022/09/24 12:59:59;;;;;;;12.57;8.90;;;18.30;99.90;;;;;;5026298;28;20486;-77
2022/09/24 13:02:30;;;;;;;15.00;11.60;;;18.30;99.90;;;;;;5025986;28;21137;-78
2022/09/24 13:05:18;;;;;;;14.00;11.20;;;18.20;99.90;;;;;;5026314;28;20525;-78
2022/09/24 13:07:57;;;;;;;14.73;12.87;;;18.10;99.90;;;;;;5028909;28;20579;-79